createdAt,value
2022-08-08T00:02:29.896Z,97505.28
2022-08-08T00:04:52.992Z,97502.41
2022-08-08T00:07:30.450Z,97500.75
2022-08-08T00:10:06.400Z,97499.50
2022-08-08T00:12:48.552Z,97503.78
2022-08-08T00:15:56.675Z,97505.03
2022-08-08T00:18:22.271Z,97502.94
2022-08-08T00:20:53.776Z,97506.03
2022-08-08T00:23:42.265Z,97500.03
2022-08-08T00:26:13.833Z,97510.47
2022-08-08T00:28:54.558Z,97507.03
2022-08-08T00:32:16.440Z,97508.47
2022-08-08T00:34:50.516Z,97516.69
2022-08-08T00:37:47.996Z,97521.00
2022-08-08T00:41:10.145Z,97520.38
2022-08-08T00:44:01.394Z,97522.22
2022-08-08T00:46:58.173Z,97526.06
2022-08-08T00:49:59.351Z,97532.81
2022-08-08T00:52:48.540Z,97523.75
2022-08-08T00:55:59.204Z,97522.47
2022-08-08T00:58:59.220Z,97520.56
2022-08-08T01:01:38.744Z,97523.63
2022-08-08T01:04:29.690Z,97516.22
2022-08-08T01:07:54.778Z,97514.75
2022-08-08T01:10:55.049Z,97516.84
2022-08-08T01:14:16.106Z,97512.47
2022-08-08T01:17:17.565Z,97502.41
2022-08-08T01:20:29.949Z,97511.00
2022-08-08T01:24:05.869Z,97503.44
2022-08-08T01:26:54.500Z,97506.66
2022-08-08T01:29:59.696Z,97503.31
2022-08-08T01:33:01.406Z,97505.56
2022-08-08T01:36:15.032Z,97503.91
2022-08-08T01:39:23.434Z,97502.50
2022-08-08T01:41:59.938Z,97512.91
2022-08-08T01:44:38.913Z,97515.81
2022-08-08T01:48:15.507Z,97509.88
2022-08-08T01:50:10.819Z,97508.47
2022-08-08T01:56:30.837Z,97503.69
2022-08-08T01:59:12.905Z,97513.31
2022-08-08T02:02:05.016Z,97508.94
2022-08-08T02:04:42.998Z,97510.56
2022-08-08T02:07:19.654Z,97511.13
2022-08-08T02:10:13.451Z,97505.50
2022-08-08T02:13:03.953Z,97506.13
2022-08-08T02:15:38.985Z,97507.13
2022-08-08T02:18:14.933Z,97509.41
2022-08-08T02:21:17.878Z,97503.59
2022-08-08T02:23:54.656Z,97501.56
2022-08-08T02:26:28.692Z,97509.47
2022-08-08T02:29:19.070Z,97499.81
2022-08-08T02:32:22.291Z,97498.84
2022-08-08T02:35:14.943Z,97506.16
2022-08-08T02:38:25.472Z,97504.16
2022-08-08T02:41:59.183Z,97501.44
2022-08-08T02:44:56.862Z,97501.63
2022-08-08T02:47:51.920Z,97499.59
2022-08-08T02:51:03.233Z,97499.16
2022-08-08T02:53:50.776Z,97506.00
2022-08-08T02:56:46.741Z,97496.03
2022-08-08T02:59:58.317Z,97505.09
2022-08-08T03:05:00.679Z,97499.69
2022-08-08T03:06:34.773Z,97515.56
2022-08-08T03:09:41.335Z,97513.91
2022-08-08T03:13:01.175Z,97516.94
2022-08-08T03:16:14.272Z,97512.53
2022-08-08T03:19:23.193Z,97523.53
2022-08-08T03:21:58.660Z,97524.06
2022-08-08T03:24:30.243Z,97518.13
2022-08-08T03:27:07.955Z,97516.47
2022-08-08T03:29:55.979Z,97513.00
2022-08-08T03:32:53.403Z,97521.59
2022-08-08T03:35:33.126Z,97519.69
2022-08-08T03:38:55.717Z,97513.91
2022-08-08T03:40:53.661Z,97520.84
2022-08-08T03:43:23.397Z,97524.25
2022-08-08T03:46:04.828Z,97525.53
2022-08-08T03:49:38.303Z,97525.53
2022-08-08T03:51:47.104Z,97521.03
2022-08-08T03:54:41.372Z,97536.44
2022-08-08T03:58:34.699Z,97528.47
2022-08-08T04:00:11.446Z,97537.16
2022-08-08T04:02:51.594Z,97544.38
2022-08-08T04:05:22.862Z,97539.84
2022-08-08T04:07:58.342Z,97544.78
2022-08-08T04:10:31.839Z,97544.47
2022-08-08T04:13:08.236Z,97546.28
2022-08-08T04:15:55.164Z,97551.75
2022-08-08T04:18:44.762Z,97539.94
2022-08-08T04:21:23.000Z,97548.94
2022-08-08T04:24:11.960Z,97562.28
2022-08-08T04:26:58.051Z,97566.00
2022-08-08T04:29:37.138Z,97570.50
2022-08-08T04:32:07.666Z,97573.34
2022-08-08T04:34:49.590Z,97572.09
2022-08-08T04:37:31.564Z,97577.59
2022-08-08T04:40:06.878Z,97578.88
2022-08-08T04:42:37.228Z,97580.28
2022-08-08T04:45:08.995Z,97586.50
2022-08-08T04:47:46.218Z,97592.91
2022-08-08T04:50:25.197Z,97598.50
2022-08-08T04:53:05.016Z,97594.56
2022-08-08T04:55:55.424Z,97597.16
2022-08-08T04:58:24.412Z,97586.47
2022-08-08T05:00:54.527Z,97588.47
2022-08-08T05:04:08.982Z,97590.41
2022-08-08T05:06:13.018Z,97588.75
2022-08-08T05:08:51.542Z,97593.38
2022-08-08T05:11:24.165Z,97597.38
2022-08-08T05:13:58.560Z,97592.41
2022-08-08T05:16:54.928Z,97584.78
2022-08-08T05:20:09.196Z,97594.53
2022-08-08T05:22:10.125Z,97594.47
2022-08-08T05:24:40.274Z,97589.69
2022-08-08T05:27:09.475Z,97592.72
2022-08-08T05:29:38.040Z,97598.84
2022-08-08T05:32:12.651Z,97596.69
2022-08-08T05:34:44.460Z,97604.09
2022-08-08T05:37:18.696Z,97603.84
2022-08-08T05:39:52.905Z,97605.34
2022-08-08T05:42:25.556Z,97596.97
2022-08-08T05:44:55.197Z,97606.22
2022-08-08T05:47:52.810Z,97608.38
2022-08-08T05:50:20.366Z,97604.38
2022-08-08T05:52:49.752Z,97613.44
2022-08-08T05:55:18.145Z,97616.59
2022-08-08T05:58:04.292Z,97613.41
2022-08-08T06:00:35.682Z,97617.75
2022-08-08T06:03:13.247Z,97620.44
2022-08-08T06:05:56.685Z,97617.75
2022-08-08T06:08:34.760Z,97617.00
2022-08-08T06:11:05.639Z,97619.25
2022-08-08T06:13:36.565Z,97614.97
2022-08-08T06:16:16.146Z,97612.88
2022-08-08T06:18:50.263Z,97621.94
2022-08-08T06:21:28.562Z,97621.09
2022-08-08T06:24:05.126Z,97617.34
2022-08-08T06:26:50.456Z,97617.34
2022-08-08T06:29:56.425Z,97624.69
2022-08-08T06:32:18.490Z,97634.31
2022-08-08T06:34:56.098Z,97635.09
2022-08-08T06:37:40.447Z,97628.69
2022-08-08T06:40:16.497Z,97631.03
2022-08-08T06:42:56.979Z,97627.00
2022-08-08T06:45:26.786Z,97634.16
2022-08-08T06:48:01.392Z,97635.47
2022-08-08T06:50:38.137Z,97648.16
2022-08-08T06:53:17.261Z,97645.19
2022-08-08T06:56:02.445Z,97650.16
2022-08-08T06:58:33.272Z,97647.69
2022-08-08T07:01:11.493Z,97647.94
2022-08-08T07:04:36.406Z,97647.72
2022-08-08T07:06:48.908Z,97644.53
2022-08-08T07:09:21.647Z,97645.91
2022-08-08T07:11:52.200Z,97661.19
2022-08-08T07:14:27.025Z,97658.81
2022-08-08T07:17:09.363Z,97651.25
2022-08-08T07:19:45.554Z,97654.31
2022-08-08T07:22:19.766Z,97650.44
2022-08-08T07:24:53.993Z,97650.38
2022-08-08T07:27:27.866Z,97651.34
2022-08-08T07:30:19.641Z,97653.56
2022-08-08T07:32:55.227Z,97660.97
2022-08-08T07:35:29.447Z,97659.38
2022-08-08T07:38:09.649Z,97661.06
2022-08-08T07:40:41.787Z,97660.13
2022-08-08T07:43:13.878Z,97656.44
2022-08-08T07:46:05.902Z,97662.94
2022-08-08T07:48:34.184Z,97661.13
2022-08-08T07:51:05.505Z,97655.75
2022-08-08T07:54:02.201Z,97672.38
2022-08-08T07:56:36.729Z,97665.94
2022-08-08T07:59:10.479Z,97672.28
2022-08-08T08:02:32.926Z,97675.69
2022-08-08T08:04:35.885Z,97667.03
2022-08-08T08:07:11.948Z,97663.75
2022-08-08T08:09:42.938Z,97668.53
2022-08-08T08:12:31.474Z,97667.19
2022-08-08T08:15:05.767Z,97662.31
2022-08-08T08:17:44.230Z,97668.91
2022-08-08T08:20:19.532Z,97673.06
2022-08-08T08:22:49.802Z,97667.03
2022-08-08T08:25:43.116Z,97668.50
2022-08-08T08:28:09.423Z,97659.97
2022-08-08T08:30:40.114Z,97661.09
2022-08-08T08:33:11.034Z,97662.00
2022-08-08T08:36:18.497Z,97658.31
2022-08-08T08:38:33.806Z,97660.88
2022-08-08T08:41:13.041Z,97665.81
2022-08-08T08:43:48.622Z,97658.00
2022-08-08T08:46:19.630Z,97662.03
2022-08-08T08:49:01.067Z,97669.41
2022-08-08T08:51:34.118Z,97672.19
2022-08-08T08:54:06.688Z,97659.91
2022-08-08T08:56:42.637Z,97660.84
2022-08-08T08:59:17.238Z,97657.72
2022-08-08T09:01:54.982Z,97651.50
2022-08-08T09:04:31.108Z,97661.69
2022-08-08T09:07:12.801Z,97658.78
2022-08-08T09:09:48.056Z,97654.44
2022-08-08T09:12:21.499Z,97649.22
2022-08-08T09:14:51.557Z,97654.88
2022-08-08T09:17:31.700Z,97652.75
2022-08-08T09:21:56.005Z,97653.91
2022-08-08T09:23:00.355Z,97649.44
2022-08-08T09:25:35.957Z,97652.31
2022-08-08T09:28:31.601Z,97655.50
2022-08-08T09:31:12.516Z,97655.50
2022-08-08T09:34:28.445Z,97653.66
2022-08-08T09:36:36.022Z,97655.56
2022-08-08T09:39:10.214Z,97648.72
2022-08-08T09:41:54.754Z,97650.69
2022-08-08T09:45:03.992Z,97651.44
2022-08-08T09:48:04.553Z,97650.16
2022-08-08T09:50:28.241Z,97650.84
2022-08-08T09:53:02.227Z,97640.72
2022-08-08T09:56:05.072Z,97646.91
2022-08-08T09:58:40.376Z,97638.72
2022-08-08T10:01:15.426Z,97637.56
2022-08-08T10:04:02.500Z,97630.50
2022-08-08T10:06:35.972Z,97627.03
2022-08-08T10:09:08.375Z,97624.06
2022-08-08T10:12:27.697Z,97615.59
2022-08-08T10:14:38.392Z,97621.19
2022-08-08T10:17:56.559Z,97628.00
2022-08-08T10:20:04.406Z,97622.09
2022-08-08T10:22:33.532Z,97614.78
2022-08-08T10:25:16.196Z,97630.16
2022-08-08T10:27:45.388Z,97622.50
2022-08-08T10:30:59.717Z,97608.69
2022-08-08T10:33:12.295Z,97615.28
2022-08-08T10:36:09.452Z,97607.94
2022-08-08T10:38:32.349Z,97610.84
2022-08-08T10:41:04.455Z,97609.25
2022-08-08T10:43:40.305Z,97607.34
2022-08-08T10:46:30.006Z,97606.94
2022-08-08T10:49:00.550Z,97603.47
2022-08-08T10:51:31.167Z,97609.72
2022-08-08T10:54:10.417Z,97591.31
2022-08-08T10:56:43.227Z,97594.22
2022-08-08T10:59:14.005Z,97600.22
2022-08-08T11:01:49.634Z,97593.56
2022-08-08T11:04:29.554Z,97592.25
2022-08-08T11:07:07.373Z,97587.66
2022-08-08T11:09:37.268Z,97591.16
2022-08-08T11:12:13.162Z,97594.97
2022-08-08T11:14:52.967Z,97595.72
2022-08-08T11:17:59.606Z,97592.03
2022-08-08T11:20:18.026Z,97590.50
2022-08-08T11:22:52.462Z,97582.09
2022-08-08T11:25:46.237Z,97580.81
2022-08-08T11:28:14.915Z,97588.66
2022-08-08T11:30:50.506Z,97588.97
2022-08-08T11:33:22.818Z,97588.97
2022-08-08T11:36:14.344Z,97578.97
2022-08-08T11:38:54.101Z,97583.31
2022-08-08T11:41:24.463Z,97587.38
2022-08-08T11:43:53.167Z,97594.72
2022-08-08T11:46:24.568Z,97577.38
2022-08-08T11:48:53.459Z,97584.44
2022-08-08T11:51:39.200Z,97580.34
2022-08-08T11:54:27.111Z,97584.63
2022-08-08T11:56:58.454Z,97584.06
2022-08-08T12:00:01.561Z,97584.94
2022-08-08T12:02:33.176Z,97573.53
2022-08-08T12:05:13.285Z,97569.47
2022-08-08T12:07:51.213Z,97571.59
2022-08-08T12:10:21.336Z,97574.84
2022-08-08T12:12:51.770Z,97568.56
2022-08-08T12:15:30.806Z,97566.69
2022-08-08T12:18:20.598Z,97560.13
2022-08-08T12:20:50.679Z,97559.28
2022-08-08T12:23:43.840Z,97556.06
2022-08-08T12:26:28.555Z,97560.41
2022-08-08T12:29:19.909Z,97562.63
2022-08-08T12:31:53.710Z,97566.75
2022-08-08T12:34:38.225Z,97564.53
2022-08-08T12:37:08.198Z,97575.44
2022-08-08T12:40:00.019Z,97557.94
2022-08-08T12:42:32.977Z,97559.47
2022-08-08T12:45:53.636Z,97554.00
2022-08-08T12:48:10.070Z,97546.03
2022-08-08T12:50:50.826Z,97546.31
2022-08-08T12:53:30.016Z,97546.38
2022-08-08T12:56:17.969Z,97547.03
2022-08-08T12:58:50.506Z,97549.25
2022-08-08T13:01:28.838Z,97547.78
2022-08-08T13:04:18.422Z,97542.63
2022-08-08T13:07:00.591Z,97550.22
2022-08-08T13:10:00.912Z,97550.66
2022-08-08T13:12:32.907Z,97549.66
2022-08-08T13:15:03.738Z,97545.78
2022-08-08T13:18:07.959Z,97552.16
2022-08-08T13:20:27.122Z,97546.59
2022-08-08T13:25:50.161Z,97541.75
2022-08-08T13:28:32.784Z,97540.06
2022-08-08T13:31:03.975Z,97540.03
2022-08-08T13:33:42.209Z,97539.13
2022-08-08T13:36:11.940Z,97542.47
2022-08-08T13:38:40.834Z,97527.53
2022-08-08T13:41:15.939Z,97525.69
2022-08-08T13:43:49.986Z,97527.91
2022-08-08T13:46:27.371Z,97525.06
2022-08-08T13:49:11.821Z,97537.22
2022-08-08T13:52:00.886Z,97530.00
2022-08-08T13:54:32.116Z,97523.53
2022-08-08T13:57:01.938Z,97516.09
2022-08-08T13:59:33.224Z,97523.97
2022-08-08T14:02:07.292Z,97532.63
2022-08-08T14:04:36.098Z,97527.03
2022-08-08T14:07:05.792Z,97525.72
2022-08-08T14:10:05.883Z,97524.09
2022-08-08T14:12:30.545Z,97532.88
2022-08-08T14:15:00.807Z,97518.63
2022-08-08T14:17:58.926Z,97522.75
2022-08-08T14:20:55.874Z,97520.38
2022-08-08T14:23:21.327Z,97519.25
2022-08-08T14:26:10.338Z,97512.25
2022-08-08T14:28:40.265Z,97507.84
2022-08-08T14:31:23.927Z,97504.28
2022-08-08T14:34:02.598Z,97510.91
2022-08-08T14:36:35.386Z,97508.75
2022-08-08T14:39:07.031Z,97509.66
2022-08-08T14:41:54.184Z,97516.06
2022-08-08T14:44:33.707Z,97515.25
2022-08-08T14:47:16.977Z,97514.44
2022-08-08T14:50:06.808Z,97509.84
2022-08-08T14:52:46.859Z,97511.44
2022-08-08T14:55:16.392Z,97507.84
2022-08-08T14:58:02.861Z,97505.72
2022-08-08T15:00:35.417Z,97510.88
2022-08-08T15:03:15.734Z,97508.66
2022-08-08T15:05:53.273Z,97507.16
2022-08-08T15:08:35.385Z,97514.06
2022-08-08T15:11:09.416Z,97507.81
2022-08-08T15:14:00.657Z,97500.38
2022-08-08T15:16:28.850Z,97504.25
2022-08-08T15:18:58.473Z,97501.78
2022-08-08T15:21:30.006Z,97509.25
2022-08-08T15:23:58.504Z,97509.19
2022-08-08T15:26:30.804Z,97500.69
2022-08-08T15:28:58.909Z,97497.00
2022-08-08T15:32:03.740Z,97494.19
2022-08-08T15:34:29.696Z,97495.03
2022-08-08T15:37:01.804Z,97482.75
2022-08-08T15:39:37.987Z,97501.44
2022-08-08T15:42:10.389Z,97494.13
2022-08-08T15:44:42.092Z,97495.41
2022-08-08T15:47:16.106Z,97501.06
2022-08-08T15:49:49.938Z,97496.47
2022-08-08T15:52:22.218Z,97495.16
2022-08-08T15:54:51.790Z,97497.38
2022-08-08T15:57:21.637Z,97480.41
2022-08-08T16:00:17.987Z,97495.97
2022-08-08T16:02:44.616Z,97481.78
2022-08-08T16:05:23.617Z,97488.28
2022-08-08T16:07:54.181Z,97488.22
2022-08-08T16:13:20.431Z,97496.59
2022-08-08T16:13:43.659Z,97488.78
2022-08-08T16:16:09.092Z,97489.34
2022-08-08T16:18:41.717Z,97482.91
2022-08-08T16:21:26.049Z,97483.38
2022-08-08T16:23:56.140Z,97490.41
2022-08-08T16:26:33.661Z,97488.75
2022-08-08T16:29:08.060Z,97482.63
2022-08-08T16:31:41.008Z,97485.19
2022-08-08T16:34:10.178Z,97493.31
2022-08-08T16:36:40.749Z,97494.97
2022-08-08T16:39:28.211Z,97500.41
2022-08-08T16:42:00.821Z,97488.84
2022-08-08T16:44:33.946Z,97489.16
2022-08-08T16:47:21.640Z,97492.41
2022-08-08T16:50:00.066Z,97495.72
2022-08-08T16:55:04.912Z,97491.31
2022-08-08T16:55:33.876Z,97492.69
2022-08-08T16:58:13.999Z,97500.25
2022-08-08T17:00:48.991Z,97490.13
2022-08-08T17:03:25.137Z,97487.44
2022-08-08T17:06:35.584Z,97497.69
2022-08-08T17:08:57.441Z,97493.03
2022-08-08T17:11:28.280Z,97503.28
2022-08-08T17:14:11.636Z,97500.88
2022-08-08T17:16:51.728Z,97510.59
2022-08-08T17:19:26.280Z,97513.53
2022-08-08T17:21:54.928Z,97509.94
2022-08-08T17:24:29.935Z,97511.31
2022-08-08T17:26:59.096Z,97512.78
2022-08-08T17:29:27.523Z,97511.81
2022-08-08T17:31:57.577Z,97521.25
2022-08-08T17:34:49.252Z,97517.63
2022-08-08T17:37:14.482Z,97525.63
2022-08-08T17:40:03.572Z,97524.50
2022-08-08T17:42:32.711Z,97526.63
2022-08-08T17:45:01.330Z,97523.81
2022-08-08T17:47:40.644Z,97529.94
2022-08-08T17:50:10.341Z,97535.50
2022-08-08T17:52:43.346Z,97535.78
2022-08-08T17:56:05.335Z,97547.47
2022-08-08T17:58:05.177Z,97547.38
2022-08-08T18:00:33.258Z,97543.81
2022-08-08T18:03:13.065Z,97544.56
2022-08-08T18:05:48.916Z,97545.69
2022-08-08T18:08:24.434Z,97551.50
2022-08-08T18:11:11.460Z,97551.06
2022-08-08T18:13:41.949Z,97550.44
2022-08-08T18:16:11.495Z,97559.81
2022-08-08T18:18:45.552Z,97561.47
2022-08-08T18:21:34.578Z,97564.31
2022-08-08T18:24:17.434Z,97568.06
2022-08-08T18:26:55.042Z,97564.25
2022-08-08T18:29:27.420Z,97574.03
2022-08-08T18:31:58.706Z,97575.03
2022-08-08T18:34:27.872Z,97579.53
2022-08-08T18:36:56.498Z,97578.00
2022-08-08T18:39:28.716Z,97580.13
2022-08-08T18:42:03.266Z,97590.47
2022-08-08T18:44:34.603Z,97599.41
2022-08-08T18:47:04.960Z,97597.97
2022-08-08T18:49:57.263Z,97604.28
2022-08-08T18:52:23.310Z,97599.56
2022-08-08T18:55:01.006Z,97607.81
2022-08-08T18:57:45.157Z,97614.50
2022-08-08T19:00:20.236Z,97618.16
2022-08-08T19:02:55.606Z,97617.88
2022-08-08T19:05:31.749Z,97628.78
2022-08-08T19:08:25.387Z,97629.03
2022-08-08T19:10:59.655Z,97634.91
2022-08-08T19:13:52.683Z,97636.63
2022-08-08T19:16:20.325Z,97643.56
2022-08-08T19:19:00.562Z,97642.34
2022-08-08T19:21:33.579Z,97648.78
2022-08-08T19:24:39.384Z,97648.34
2022-08-08T19:27:05.935Z,97641.84
2022-08-08T19:29:42.168Z,97651.19
2022-08-08T19:32:13.147Z,97655.63
2022-08-08T19:34:49.418Z,97648.38
2022-08-08T19:37:42.025Z,97655.03
2022-08-08T19:40:16.258Z,97662.34
2022-08-08T19:42:45.470Z,97653.53
2022-08-08T19:45:57.685Z,97656.00
2022-08-08T19:48:03.373Z,97660.13
2022-08-08T19:50:33.238Z,97665.41
2022-08-08T19:53:01.420Z,97663.19
2022-08-08T19:55:34.048Z,97655.22
2022-08-08T19:58:02.771Z,97665.88
2022-08-08T20:00:34.668Z,97663.06
2022-08-08T20:03:15.134Z,97664.34
2022-08-08T20:06:14.703Z,97675.09
2022-08-08T20:08:47.794Z,97669.03
2022-08-08T20:11:16.869Z,97681.78
2022-08-08T20:14:31.690Z,97676.41
2022-08-08T20:16:40.464Z,97680.03
2022-08-08T20:19:09.307Z,97679.91
2022-08-08T20:21:38.245Z,97669.03
2022-08-08T20:24:07.893Z,97671.59
2022-08-08T20:26:38.385Z,97679.91
2022-08-08T20:29:11.131Z,97685.75
2022-08-08T20:32:06.802Z,97688.50
2022-08-08T20:34:31.826Z,97687.47
2022-08-08T20:37:02.461Z,97684.16
2022-08-08T20:39:39.149Z,97688.09
2022-08-08T20:42:17.843Z,97694.19
2022-08-08T20:44:48.556Z,97691.94
2022-08-08T20:47:23.932Z,97694.03
2022-08-08T20:49:54.360Z,97697.91
2022-08-08T20:52:25.201Z,97699.44
2022-08-08T20:54:53.386Z,97694.38
2022-08-08T20:57:21.920Z,97697.31
2022-08-08T20:59:50.208Z,97702.88
2022-08-08T21:02:25.549Z,97705.31
2022-08-08T21:04:56.259Z,97706.13
2022-08-08T21:07:47.607Z,97707.41
2022-08-08T21:10:13.759Z,97703.75
2022-08-08T21:12:44.648Z,97701.91
2022-08-08T21:15:16.503Z,97707.84
2022-08-08T21:18:04.429Z,97704.84
2022-08-08T21:20:34.180Z,97702.16
2022-08-08T21:23:02.538Z,97699.09
2022-08-08T21:25:36.179Z,97702.03
2022-08-08T21:28:16.049Z,97705.22
2022-08-08T21:30:45.354Z,97705.97
2022-08-08T21:33:20.771Z,97709.34
2022-08-08T21:36:19.230Z,97708.19
2022-08-08T21:38:37.488Z,97709.88
2022-08-08T21:41:05.689Z,97716.91
2022-08-08T21:43:35.616Z,97706.28
2022-08-08T21:48:08.061Z,97711.47
2022-08-08T21:48:55.181Z,97711.38
2022-08-08T21:54:17.251Z,97715.13
2022-08-08T21:54:30.707Z,97716.44
2022-08-08T21:57:02.772Z,97719.13
2022-08-08T21:59:43.747Z,97723.06
2022-08-08T22:02:24.077Z,97730.47
2022-08-08T22:04:58.578Z,97736.44
2022-08-08T22:07:39.496Z,97737.97
2022-08-08T22:10:09.684Z,97725.03
2022-08-08T22:12:38.973Z,97725.91
2022-08-08T22:15:08.639Z,97731.94
2022-08-08T22:17:45.742Z,97731.53
2022-08-08T22:20:23.642Z,97721.66
2022-08-08T22:22:56.588Z,97727.81
2022-08-08T22:26:20.385Z,97726.56
2022-08-08T22:29:14.283Z,97720.47
2022-08-08T22:31:09.051Z,97729.53
2022-08-08T22:34:12.437Z,97724.41
2022-08-08T22:36:32.367Z,97734.63
2022-08-08T22:39:06.596Z,97735.34
2022-08-08T22:41:35.035Z,97738.06
2022-08-08T22:44:07.427Z,97735.47
2022-08-08T22:46:38.885Z,97742.94
2022-08-08T22:49:09.313Z,97745.06
2022-08-08T22:51:42.608Z,97744.34
2022-08-08T22:54:31.953Z,97740.41
2022-08-08T22:57:08.668Z,97735.28
2022-08-08T22:59:52.716Z,97730.41
2022-08-08T23:02:29.045Z,97738.22
2022-08-08T23:04:58.580Z,97735.75
2022-08-08T23:07:51.276Z,97735.75
2022-08-08T23:10:25.538Z,97738.00
2022-08-08T23:12:56.008Z,97738.22
2022-08-08T23:16:40.858Z,97736.78
2022-08-08T23:18:12.554Z,97733.31
2022-08-08T23:20:43.467Z,97731.47
2022-08-08T23:23:13.819Z,97740.31
2022-08-08T23:25:45.231Z,97742.38
2022-08-08T23:28:18.686Z,97741.16
2022-08-08T23:30:47.311Z,97737.03
2022-08-08T23:33:35.739Z,97744.44
2022-08-08T23:36:08.567Z,97746.06
2022-08-08T23:38:43.992Z,97742.19
2022-08-08T23:41:24.451Z,97747.13
2022-08-08T23:43:54.289Z,97739.72
2022-08-08T23:49:07.764Z,97736.25
2022-08-08T23:49:15.140Z,97737.25
2022-08-08T23:52:04.338Z,97737.03
2022-08-08T23:54:42.087Z,97735.59
2022-08-08T23:57:26.458Z,97728.97
